createdAt,value
2018-11-04T00:00:49.219Z,87.63
2018-11-04T00:03:18.454Z,88.01
2018-11-04T00:05:47.674Z,88.10
2018-11-04T00:08:16.657Z,88.31
2018-11-04T00:10:45.941Z,88.05
2018-11-04T00:13:14.900Z,87.92
2018-11-04T00:15:44.480Z,88.00
2018-11-04T00:18:13.536Z,88.50
2018-11-04T00:20:42.798Z,88.67
2018-11-04T00:23:12.654Z,88.31
2018-11-04T00:25:41.919Z,88.39
2018-11-04T00:28:11.470Z,88.74
2018-11-04T00:30:40.879Z,88.71
2018-11-04T00:33:10.734Z,89.18
2018-11-04T00:35:39.662Z,89.78
2018-11-04T00:38:09.082Z,89.96
2018-11-04T00:40:38.630Z,90.20
2018-11-04T00:43:08.065Z,91.25
2018-11-04T00:45:37.659Z,91.90
2018-11-04T00:48:07.102Z,92.06
2018-11-04T00:50:36.555Z,92.25
2018-11-04T00:53:05.782Z,92.89
2018-11-04T00:55:35.050Z,92.86
2018-11-04T00:58:04.614Z,93.53
2018-11-04T01:00:33.889Z,93.72
2018-11-04T01:03:03.130Z,93.94
2018-11-04T01:05:32.595Z,93.79
2018-11-04T01:08:02.161Z,93.32
2018-11-04T01:10:43.982Z,93.46
2018-11-04T01:13:13.678Z,93.61
2018-11-04T01:15:42.938Z,93.47
2018-11-04T01:18:12.494Z,93.13
2018-11-04T01:20:41.774Z,93.06
2018-11-04T01:23:11.331Z,93.18
2018-11-04T01:25:40.506Z,93.53
2018-11-04T01:28:10.067Z,93.38
2018-11-04T01:30:39.307Z,93.34
2018-11-04T01:33:08.594Z,93.15
2018-11-04T01:35:37.898Z,93.00
2018-11-04T01:38:07.470Z,92.92
2018-11-04T01:40:36.762Z,93.17
2018-11-04T01:43:06.145Z,92.89
2018-11-04T01:45:35.737Z,92.95
2018-11-04T01:48:04.941Z,92.54
2018-11-04T01:50:34.175Z,92.64
2018-11-04T01:53:03.738Z,93.05
2018-11-04T01:55:33.263Z,93.32
2018-11-04T01:58:02.686Z,93.68
2018-11-04T02:00:32.228Z,93.46
2018-11-04T02:03:01.509Z,93.50
2018-11-04T02:05:30.774Z,93.19
2018-11-04T02:07:59.710Z,93.39
2018-11-04T02:10:28.989Z,93.33
2018-11-04T02:12:58.561Z,93.18
2018-11-04T02:15:27.834Z,93.18
2018-11-04T02:17:57.822Z,92.88
2018-11-04T02:20:27.079Z,93.03
2018-11-04T02:22:57.742Z,93.10
2018-11-04T02:25:27.006Z,92.81
2018-11-04T02:27:57.962Z,92.97
2018-11-04T02:30:27.422Z,93.03
2018-11-04T02:32:57.825Z,92.85
2018-11-04T02:35:27.695Z,92.93
2018-11-04T02:37:57.815Z,92.97
2018-11-04T02:40:27.835Z,93.40
2018-11-04T02:42:57.887Z,93.19
2018-11-04T02:45:27.582Z,93.77
2018-11-04T02:47:57.914Z,93.93
2018-11-04T02:50:27.466Z,94.48
2018-11-04T02:52:57.832Z,94.70
2018-11-04T02:55:27.398Z,95.05
2018-11-04T02:57:57.954Z,95.14
2018-11-04T03:00:27.540Z,95.45
2018-11-04T03:02:58.173Z,95.39
2018-11-04T03:05:27.590Z,95.30
2018-11-04T03:07:57.932Z,95.39
2018-11-04T03:10:27.629Z,95.13
2018-11-04T03:12:57.949Z,95.33
2018-11-04T03:15:27.530Z,95.38
2018-11-04T03:17:57.941Z,94.96
2018-11-04T03:20:27.514Z,95.25
2018-11-04T03:22:57.845Z,95.10
2018-11-04T03:25:27.426Z,95.25
2018-11-04T03:27:58.066Z,95.21
2018-11-04T03:30:27.553Z,95.84
2018-11-04T03:32:57.944Z,95.77
2018-11-04T03:35:27.711Z,95.75
2018-11-04T03:37:57.931Z,96.10
2018-11-04T03:40:27.665Z,96.19
2018-11-04T03:42:57.961Z,96.02
2018-11-04T03:45:27.686Z,96.58
2018-11-04T03:47:58.005Z,96.73
2018-11-04T03:50:27.270Z,96.88
2018-11-04T03:52:57.824Z,96.60
2018-11-04T03:55:26.828Z,97.06
2018-11-04T03:57:57.641Z,96.90
2018-11-04T04:00:26.926Z,96.84
2018-11-04T04:02:56.569Z,96.57
2018-11-04T04:05:25.821Z,96.84
2018-11-04T04:07:55.102Z,96.89
2018-11-04T04:10:24.845Z,96.60
2018-11-04T04:12:54.106Z,96.98
2018-11-04T04:15:23.567Z,96.84
2018-11-04T04:17:53.026Z,96.71
2018-11-04T04:20:22.582Z,96.73
2018-11-04T04:22:51.870Z,96.23
2018-11-04T04:25:21.146Z,96.53
2018-11-04T04:27:50.410Z,95.92
2018-11-04T04:30:19.732Z,95.67
2018-11-04T04:32:49.262Z,95.90
2018-11-04T04:35:18.535Z,95.76
2018-11-04T04:37:47.982Z,95.37
2018-11-04T04:40:17.253Z,95.44
2018-11-04T04:42:46.839Z,95.09
2018-11-04T04:45:16.113Z,95.11
2018-11-04T04:47:45.670Z,95.13
2018-11-04T04:50:15.114Z,95.13
2018-11-04T04:52:44.385Z,95.38
2018-11-04T04:55:13.900Z,95.06
2018-11-04T04:57:43.183Z,94.99
2018-11-04T05:00:12.757Z,95.00
2018-11-04T05:02:42.388Z,94.97
2018-11-04T05:05:11.947Z,94.81
2018-11-04T05:07:41.214Z,94.90
2018-11-04T05:10:10.453Z,94.96
2018-11-04T05:12:39.958Z,94.71
2018-11-04T05:15:09.516Z,94.48
2018-11-04T05:17:38.943Z,94.37
2018-11-04T05:20:07.882Z,94.76
2018-11-04T05:22:37.152Z,94.80
2018-11-04T05:25:06.411Z,95.48
2018-11-04T05:27:35.960Z,95.00
2018-11-04T05:30:04.866Z,95.44
2018-11-04T05:32:34.348Z,95.68
2018-11-04T05:35:03.666Z,95.40
2018-11-04T05:37:32.821Z,95.43
2018-11-04T05:40:02.312Z,95.14
2018-11-04T05:42:31.963Z,95.69
2018-11-04T05:45:01.886Z,95.50
2018-11-04T05:47:31.329Z,95.51
2018-11-04T05:50:01.058Z,95.76
2018-11-04T05:52:30.326Z,95.70
2018-11-04T05:54:59.898Z,96.09
2018-11-04T05:57:29.178Z,96.65
2018-11-04T05:59:58.110Z,96.59
2018-11-04T06:02:26.806Z,96.40
2018-11-04T06:04:56.130Z,96.39
2018-11-04T06:07:25.394Z,96.82
2018-11-04T06:09:54.963Z,96.42
2018-11-04T06:12:24.073Z,96.52
2018-11-04T06:14:53.559Z,96.26
2018-11-04T06:17:22.930Z,96.25
2018-11-04T06:19:52.233Z,96.69
2018-11-04T06:22:21.948Z,96.85
2018-11-04T06:24:51.201Z,96.70
2018-11-04T06:27:20.470Z,96.69
2018-11-04T06:29:50.481Z,96.69
2018-11-04T06:32:20.090Z,96.70
2018-11-04T06:34:49.574Z,97.23
2018-11-04T06:37:19.119Z,97.45
2018-11-04T06:39:48.385Z,97.58
2018-11-04T06:42:18.153Z,98.04
2018-11-04T06:44:47.420Z,97.71
2018-11-04T06:47:17.500Z,98.24
2018-11-04T06:49:47.062Z,98.46
2018-11-04T06:52:16.510Z,98.76
2018-11-04T06:54:46.066Z,98.91
2018-11-04T06:57:15.333Z,99.01
2018-11-04T06:59:44.622Z,98.96
2018-11-04T07:02:14.022Z,99.16
2018-11-04T07:04:43.349Z,99.20
2018-11-04T07:07:13.101Z,99.24
2018-11-04T07:09:42.380Z,99.67
2018-11-04T07:12:11.641Z,99.37
2018-11-04T07:14:41.199Z,99.94
2018-11-04T07:17:10.537Z,99.67
2018-11-04T07:19:39.810Z,99.71
2018-11-04T07:22:09.341Z,100.00
2018-11-04T07:24:38.626Z,100.00
2018-11-04T07:27:07.862Z,100.00
2018-11-04T07:29:37.197Z,100.00
2018-11-04T07:32:06.741Z,100.00
2018-11-04T07:34:36.005Z,100.00
2018-11-04T07:37:05.277Z,99.99
2018-11-04T07:39:34.561Z,100.00
2018-11-04T07:42:03.879Z,100.00
2018-11-04T07:44:33.190Z,100.00
2018-11-04T07:47:03.527Z,100.00
2018-11-04T07:49:32.466Z,100.00
2018-11-04T07:52:01.882Z,100.00
2018-11-04T07:54:31.287Z,100.00
2018-11-04T07:57:00.656Z,100.00
2018-11-04T07:59:30.318Z,100.00
2018-11-04T08:02:00.373Z,100.00
2018-11-04T08:04:29.957Z,100.00
2018-11-04T08:06:59.293Z,100.00
2018-11-04T08:09:28.578Z,100.00
2018-11-04T08:11:58.645Z,100.00
2018-11-04T08:14:27.675Z,100.00
2018-11-04T08:16:56.951Z,100.00
2018-11-04T08:19:26.466Z,100.00
2018-11-04T08:21:55.750Z,100.00
2018-11-04T08:24:25.334Z,100.00
2018-11-04T08:26:54.293Z,100.00
2018-11-04T08:29:23.697Z,100.00
2018-11-04T08:31:53.165Z,100.00
2018-11-04T08:34:22.446Z,100.00
2018-11-04T08:36:51.727Z,100.00
2018-11-04T08:39:21.294Z,100.00
2018-11-04T08:41:50.849Z,100.00
2018-11-04T08:44:20.302Z,100.00
2018-11-04T08:46:49.642Z,100.00
2018-11-04T08:49:19.147Z,100.00
2018-11-04T08:51:48.469Z,100.00
2018-11-04T08:54:17.918Z,100.00
2018-11-04T08:56:47.439Z,100.00
2018-11-04T08:59:16.972Z,100.00
2018-11-04T09:01:46.530Z,100.00
2018-11-04T09:04:15.819Z,100.00
2018-11-04T09:06:45.375Z,100.00
2018-11-04T09:09:14.882Z,100.00
2018-11-04T09:11:44.693Z,100.00
2018-11-04T09:14:14.333Z,100.00
2018-11-04T09:16:43.466Z,100.00
2018-11-04T09:19:12.746Z,100.00
2018-11-04T09:21:42.394Z,100.00
2018-11-04T09:24:11.820Z,100.00
2018-11-04T09:26:41.462Z,100.00
2018-11-04T09:29:11.412Z,100.00
2018-11-04T09:31:40.844Z,100.00
2018-11-04T09:34:10.067Z,100.00
2018-11-04T09:36:39.667Z,100.00
2018-11-04T09:39:14.901Z,100.00
2018-11-04T09:41:44.437Z,100.00
2018-11-04T09:44:14.007Z,100.00
2018-11-04T09:46:43.007Z,100.00
2018-11-04T09:49:12.344Z,100.00
2018-11-04T09:51:41.608Z,100.00
2018-11-04T09:54:10.889Z,100.00
2018-11-04T09:56:40.546Z,100.00
2018-11-04T09:59:09.985Z,100.00
2018-11-04T10:01:39.545Z,100.00
2018-11-04T10:04:08.498Z,100.00
2018-11-04T10:06:37.769Z,100.00
2018-11-04T10:09:06.794Z,100.00
2018-11-04T10:11:36.069Z,100.00
2018-11-04T10:14:05.295Z,100.00
2018-11-04T10:16:34.542Z,100.00
2018-11-04T10:19:03.996Z,100.00
2018-11-04T10:21:33.873Z,100.00
2018-11-04T10:24:03.182Z,100.00
2018-11-04T10:26:32.230Z,99.93
2018-11-04T10:29:01.812Z,100.00
2018-11-04T10:31:31.562Z,99.83
2018-11-04T10:34:01.270Z,99.77
2018-11-04T10:36:31.805Z,99.30
2018-11-04T10:39:01.329Z,99.25
2018-11-04T10:41:30.606Z,98.87
2018-11-04T10:44:00.857Z,98.35
2018-11-04T10:46:38.054Z,98.05
2018-11-04T10:49:07.275Z,98.96
2018-11-04T10:51:36.751Z,100.00
2018-11-04T10:54:05.697Z,99.35
2018-11-04T10:56:34.629Z,96.42
2018-11-04T10:59:04.194Z,94.02
2018-11-04T11:01:33.208Z,90.32
2018-11-04T11:04:02.772Z,89.46
2018-11-04T11:06:32.047Z,88.51
2018-11-04T11:09:01.630Z,88.98
2018-11-04T11:11:30.956Z,89.65
2018-11-04T11:14:02.106Z,90.02
2018-11-04T11:16:31.651Z,90.64
2018-11-04T11:19:01.029Z,91.06
2018-11-04T11:24:15.568Z,91.55
2018-11-04T11:26:45.046Z,91.47
2018-11-04T11:29:14.345Z,91.77
2018-11-04T11:31:43.858Z,91.92
2018-11-04T11:34:12.799Z,92.40
2018-11-04T11:36:42.070Z,93.01
2018-11-04T11:39:11.126Z,93.15
2018-11-04T11:41:40.390Z,93.77
2018-11-04T11:44:09.954Z,93.99
2018-11-04T11:46:52.106Z,94.11
2018-11-04T11:49:24.054Z,94.11
2018-11-04T11:51:53.875Z,93.86
2018-11-04T11:54:23.165Z,93.58
2018-11-04T11:56:52.421Z,93.43
2018-11-04T11:59:21.920Z,93.27
2018-11-04T12:01:51.346Z,93.77
2018-11-04T12:04:20.875Z,93.96
2018-11-04T12:06:50.334Z,94.44
2018-11-04T12:09:19.849Z,94.40
2018-11-04T12:11:49.114Z,94.88
2018-11-04T12:14:18.384Z,94.96
2018-11-04T12:16:47.994Z,94.68
2018-11-04T12:19:17.970Z,94.77
2018-11-04T12:21:46.914Z,94.26
2018-11-04T12:24:16.198Z,94.32
2018-11-04T12:26:45.753Z,94.16
2018-11-04T12:29:15.060Z,94.20
2018-11-04T12:31:44.346Z,94.48
2018-11-04T12:34:13.918Z,94.16
2018-11-04T12:36:43.186Z,94.35
2018-11-04T12:39:12.758Z,94.60
2018-11-04T12:41:42.040Z,94.26
2018-11-04T12:44:12.066Z,94.44
2018-11-04T12:46:41.460Z,94.86
2018-11-04T12:49:11.171Z,94.26
2018-11-04T12:51:40.935Z,94.25
2018-11-04T12:54:10.726Z,94.72
2018-11-04T12:56:39.994Z,94.56
2018-11-04T12:59:08.865Z,93.90
2018-11-04T13:01:38.154Z,93.51
2018-11-04T13:04:07.101Z,93.41
2018-11-04T13:06:36.365Z,93.68
2018-11-04T13:09:05.930Z,93.11
2018-11-04T13:11:35.331Z,93.42
2018-11-04T13:14:04.692Z,92.88
2018-11-04T13:16:34.138Z,92.81
2018-11-04T13:19:03.873Z,92.95
2018-11-04T13:21:33.150Z,92.96
2018-11-04T13:24:02.442Z,93.25
2018-11-04T13:26:31.893Z,93.88
2018-11-04T13:29:01.268Z,93.66
2018-11-04T13:31:30.546Z,93.72
2018-11-04T13:34:00.431Z,93.99
2018-11-04T13:36:30.014Z,93.87
2018-11-04T13:38:59.409Z,93.21
2018-11-04T13:41:28.945Z,93.46
2018-11-04T13:43:59.313Z,93.34
2018-11-04T13:46:28.709Z,93.47
2018-11-04T13:48:59.042Z,93.74
2018-11-04T13:51:28.322Z,93.70
2018-11-04T13:53:57.814Z,92.99
2018-11-04T13:56:30.133Z,92.65
2018-11-04T13:58:59.507Z,92.60
2018-11-04T14:01:29.078Z,92.57
2018-11-04T14:03:59.287Z,92.37
2018-11-04T14:06:28.570Z,92.89
2018-11-04T14:08:59.057Z,92.63
2018-11-04T14:11:28.329Z,92.34
2018-11-04T14:13:57.614Z,92.62
2018-11-04T14:16:27.230Z,92.58
2018-11-04T14:18:56.502Z,92.37
2018-11-04T14:21:26.193Z,92.25
2018-11-04T14:23:55.555Z,92.51
2018-11-04T14:26:25.078Z,92.16
2018-11-04T14:28:54.365Z,92.30
2018-11-04T14:31:23.654Z,92.27
2018-11-04T14:33:53.248Z,91.98
2018-11-04T14:36:22.548Z,91.98
2018-11-04T14:38:52.213Z,91.98
2018-11-04T14:41:23.594Z,92.19
2018-11-04T14:44:01.448Z,92.50
2018-11-04T14:46:32.121Z,91.82
2018-11-04T14:49:02.641Z,91.48
2018-11-04T14:51:32.243Z,91.71
2018-11-04T14:54:01.561Z,91.68
2018-11-04T14:56:31.145Z,91.86
2018-11-04T14:59:01.605Z,92.05
2018-11-04T15:01:30.963Z,91.96
2018-11-04T15:04:00.567Z,91.74
2018-11-04T15:06:29.854Z,91.49
2018-11-04T15:09:00.413Z,91.15
2018-11-04T15:11:29.677Z,91.93
2018-11-04T15:13:59.658Z,91.49
2018-11-04T15:16:29.209Z,91.54
2018-11-04T15:18:59.764Z,92.32
2018-11-04T15:21:29.353Z,92.33
2018-11-04T15:23:59.625Z,92.65
2018-11-04T15:26:29.272Z,92.95
2018-11-04T15:28:59.689Z,93.12
2018-11-04T15:31:28.713Z,93.04
2018-11-04T15:33:59.464Z,93.43
2018-11-04T15:36:28.825Z,93.82
2018-11-04T15:39:03.028Z,93.84
2018-11-04T15:41:32.591Z,93.62
2018-11-04T15:44:01.831Z,93.66
2018-11-04T15:46:31.489Z,93.53
2018-11-04T15:49:00.598Z,93.85
2018-11-04T15:51:29.414Z,94.04
2018-11-04T15:53:59.313Z,94.10
2018-11-04T15:56:28.037Z,94.08
2018-11-04T15:58:57.489Z,93.87
2018-11-04T16:01:26.781Z,94.15
2018-11-04T16:03:56.359Z,94.62
2018-11-04T16:06:25.863Z,94.93
2018-11-04T16:08:55.178Z,94.78
2018-11-04T16:11:24.505Z,95.16
2018-11-04T16:13:53.779Z,95.47
2018-11-04T16:16:23.160Z,95.18
2018-11-04T16:18:52.551Z,95.57
2018-11-04T16:21:21.989Z,95.56
2018-11-04T16:23:51.415Z,95.82
2018-11-04T16:26:20.710Z,95.76
2018-11-04T16:28:50.277Z,96.32
2018-11-04T16:31:19.602Z,96.28
2018-11-04T16:33:48.883Z,97.02
2018-11-04T16:36:18.699Z,96.77
2018-11-04T16:38:48.083Z,97.55
2018-11-04T16:41:18.266Z,97.85
2018-11-04T16:43:48.070Z,98.11
2018-11-04T16:46:17.827Z,98.05
2018-11-04T16:48:47.359Z,97.77
2018-11-04T16:51:16.662Z,97.86
2018-11-04T16:53:46.470Z,97.61
2018-11-04T16:56:15.862Z,97.59
2018-11-04T16:58:45.521Z,97.38
2018-11-04T17:01:15.032Z,97.58
2018-11-04T17:03:44.649Z,97.69
2018-11-04T17:06:13.604Z,98.35
2018-11-04T17:08:43.106Z,98.35
2018-11-04T17:11:12.715Z,98.51
2018-11-04T17:13:42.122Z,98.21
2018-11-04T17:16:11.693Z,98.26
2018-11-04T17:18:40.986Z,98.47
2018-11-04T17:21:10.541Z,98.15
2018-11-04T17:23:39.794Z,98.27
2018-11-04T17:26:09.197Z,98.43
2018-11-04T17:28:39.444Z,98.32
2018-11-04T17:31:09.026Z,98.76
2018-11-04T17:33:38.506Z,98.71
2018-11-04T17:36:07.589Z,98.88
2018-11-04T17:38:36.981Z,98.90
2018-11-04T17:41:05.954Z,99.31
2018-11-04T17:43:35.252Z,99.31
2018-11-04T17:46:04.266Z,99.29
2018-11-04T17:48:33.463Z,99.51
2018-11-04T17:51:02.757Z,99.77
2018-11-04T17:53:32.044Z,99.88
2018-11-04T17:56:02.208Z,99.67
2018-11-04T17:58:31.735Z,99.85
2018-11-04T18:01:01.007Z,100.00
2018-11-04T18:03:30.606Z,100.00
2018-11-04T18:06:00.012Z,100.00
2018-11-04T18:08:29.326Z,100.00
2018-11-04T18:11:00.054Z,100.00
2018-11-04T18:13:30.239Z,100.00
2018-11-04T18:16:01.146Z,100.00
2018-11-04T18:18:30.522Z,100.00
2018-11-04T18:21:00.071Z,100.00
2018-11-04T18:23:30.023Z,100.00
2018-11-04T18:26:00.266Z,100.00
2018-11-04T18:28:29.876Z,100.00
2018-11-04T18:31:00.207Z,99.84
2018-11-04T18:33:29.262Z,99.81
2018-11-04T18:36:00.089Z,100.00
2018-11-04T18:38:29.722Z,100.00
2018-11-04T18:41:00.482Z,100.00
2018-11-04T18:43:29.884Z,100.00
2018-11-04T18:46:00.217Z,100.00
2018-11-04T18:48:29.835Z,99.97
2018-11-04T18:51:00.139Z,99.94
2018-11-04T18:53:29.763Z,100.00
2018-11-04T18:56:00.079Z,100.00
2018-11-04T18:58:29.387Z,99.85
2018-11-04T19:01:02.146Z,99.71
2018-11-04T19:03:31.381Z,99.81
2018-11-04T19:06:01.242Z,100.00
2018-11-04T19:08:30.830Z,99.69
2018-11-04T19:11:00.185Z,99.81
2018-11-04T19:13:29.932Z,99.84
2018-11-04T19:16:00.289Z,99.86
2018-11-04T19:18:30.223Z,99.88
2018-11-04T19:21:00.605Z,99.34
2018-11-04T19:23:29.681Z,99.31
2018-11-04T19:26:00.137Z,99.37
2018-11-04T19:28:29.958Z,99.34
2018-11-04T19:31:00.401Z,99.20
2018-11-04T19:33:29.961Z,98.90
2018-11-04T19:36:00.763Z,98.11
2018-11-04T19:38:31.138Z,98.21
2018-11-04T19:41:00.810Z,97.67
2018-11-04T19:43:30.082Z,97.57
2018-11-04T19:46:00.274Z,96.98
2018-11-04T19:48:29.847Z,96.62
2018-11-04T19:51:00.416Z,96.82
2018-11-04T19:53:29.999Z,96.39
2018-11-04T19:56:00.221Z,95.98
2018-11-04T19:58:29.497Z,95.71
2018-11-04T20:00:58.603Z,95.39
2018-11-04T20:03:28.093Z,95.89
2018-11-04T20:05:57.436Z,95.59
2018-11-04T20:08:26.621Z,95.56
2018-11-04T20:10:56.305Z,95.45
2018-11-04T20:16:25.422Z,95.05
2018-11-04T20:18:54.874Z,95.05
2018-11-04T20:21:24.201Z,95.10
2018-11-04T20:23:53.717Z,94.67
2018-11-04T20:26:23.090Z,94.99
2018-11-04T20:28:52.213Z,94.86
2018-11-04T20:31:21.724Z,94.73
2018-11-04T20:33:50.465Z,94.46
2018-11-04T20:36:20.057Z,94.37
2018-11-04T20:38:48.861Z,94.01
2018-11-04T20:41:28.251Z,94.01
2018-11-04T20:43:57.890Z,93.53
2018-11-04T20:46:27.286Z,93.45
2018-11-04T20:52:07.528Z,93.43
2018-11-04T20:54:37.195Z,93.29
2018-11-04T21:00:04.029Z,93.25
2018-11-04T21:02:33.627Z,93.47
2018-11-04T21:05:10.730Z,93.03
2018-11-04T21:07:40.252Z,93.02
2018-11-04T21:10:09.461Z,93.22
2018-11-04T21:12:39.058Z,93.07
2018-11-04T21:15:08.442Z,93.19
2018-11-04T21:17:38.098Z,93.05
2018-11-04T21:20:06.831Z,93.15
2018-11-04T21:22:36.378Z,93.41
2018-11-04T21:25:05.080Z,93.14
2018-11-04T21:27:34.559Z,93.58
2018-11-04T21:30:03.740Z,93.91
2018-11-04T21:32:33.166Z,93.76
2018-11-04T21:35:02.467Z,94.09
2018-11-04T21:37:31.737Z,93.71
2018-11-04T21:40:01.887Z,93.33
2018-11-04T21:42:31.508Z,93.51
2018-11-04T21:45:01.258Z,93.00
2018-11-04T21:47:30.711Z,93.49
2018-11-04T21:50:00.571Z,93.32
2018-11-04T21:52:30.466Z,92.92
2018-11-04T21:55:00.708Z,92.63
2018-11-04T21:57:30.261Z,92.78
2018-11-04T22:00:01.041Z,92.87
2018-11-04T22:02:30.506Z,92.66
2018-11-04T22:05:01.079Z,92.91
2018-11-04T22:07:30.470Z,92.66
2018-11-04T22:10:00.918Z,92.40
2018-11-04T22:12:30.246Z,92.21
2018-11-04T22:15:00.661Z,92.49
2018-11-04T22:17:29.950Z,92.96
2018-11-04T22:20:00.521Z,92.65
2018-11-04T22:22:30.921Z,92.51
2018-11-04T22:25:00.886Z,92.59
2018-11-04T22:27:30.399Z,92.31
2018-11-04T22:30:02.571Z,92.39
2018-11-04T22:32:31.859Z,92.60
2018-11-04T22:35:01.418Z,92.20
2018-11-04T22:37:30.824Z,92.04
2018-11-04T22:40:00.682Z,92.33
2018-11-04T22:42:29.957Z,92.62
2018-11-04T22:45:00.790Z,92.62
2018-11-04T22:47:30.430Z,92.38
2018-11-04T22:50:00.670Z,92.70
2018-11-04T22:52:30.262Z,92.43
2018-11-04T22:55:00.833Z,92.70
2018-11-04T22:57:30.400Z,92.45
2018-11-04T23:00:01.124Z,92.67
2018-11-04T23:02:30.238Z,92.13
2018-11-04T23:05:03.036Z,92.29
2018-11-04T23:07:32.334Z,92.67
2018-11-04T23:10:01.867Z,92.87
2018-11-04T23:12:31.400Z,92.73
2018-11-04T23:15:00.850Z,92.78
2018-11-04T23:17:30.441Z,92.67
2018-11-04T23:20:01.824Z,93.06
2018-11-04T23:22:31.619Z,92.93
2018-11-04T23:25:01.280Z,93.21
2018-11-04T23:27:30.738Z,93.26
2018-11-04T23:30:00.770Z,92.49
2018-11-04T23:32:30.364Z,92.54
2018-11-04T23:35:01.195Z,92.12
2018-11-04T23:37:30.622Z,92.34
2018-11-04T23:40:00.802Z,92.40
2018-11-04T23:42:29.919Z,91.87
2018-11-04T23:45:00.758Z,92.25
2018-11-04T23:47:30.331Z,92.02
2018-11-04T23:50:00.878Z,92.40
2018-11-04T23:52:30.465Z,92.77
2018-11-04T23:55:00.890Z,92.58
2018-11-04T23:57:30.466Z,93.04
